createdAt,value
2019-03-28T00:01:19.886Z,100123.92
2019-03-28T00:03:48.148Z,100127.14
2019-03-28T00:06:16.486Z,100126.67
2019-03-28T00:08:44.694Z,100117.84
2019-03-28T00:11:13.547Z,100117.61
2019-03-28T00:13:41.803Z,100114.16
2019-03-28T00:16:10.083Z,100110.16
2019-03-28T00:18:38.342Z,100106.09
2019-03-28T00:21:06.627Z,100109.08
2019-03-28T00:23:36.528Z,100104.84
2019-03-28T00:26:04.816Z,100101.59
2019-03-28T00:28:33.073Z,100102.42
2019-03-28T00:31:01.350Z,100093.88
2019-03-28T00:33:29.611Z,100097.53
2019-03-28T00:35:57.896Z,100096.44
2019-03-28T00:38:26.156Z,100090.01
2019-03-28T00:40:55.243Z,100092.01
2019-03-28T00:43:24.254Z,100094.47
2019-03-28T00:45:53.067Z,100089.97
2019-03-28T00:48:21.334Z,100092.91
2019-03-28T00:50:49.610Z,100091.23
2019-03-28T00:53:17.878Z,100087.36
2019-03-28T00:55:46.491Z,100088.22
2019-03-28T00:58:14.746Z,100084.70
2019-03-28T01:00:43.033Z,100084.62
2019-03-28T01:03:11.391Z,100085.55
2019-03-28T01:05:39.653Z,100079.12
2019-03-28T01:08:07.915Z,100076.31
2019-03-28T01:10:36.200Z,100073.53
2019-03-28T01:13:04.458Z,100077.45
2019-03-28T01:15:33.409Z,100075.78
2019-03-28T01:18:02.535Z,100071.09
2019-03-28T01:20:30.815Z,100070.76
2019-03-28T01:22:59.076Z,100075.05
2019-03-28T01:25:27.536Z,100068.80
2019-03-28T01:27:55.894Z,100068.95
2019-03-28T01:30:24.180Z,100071.41
2019-03-28T01:32:53.268Z,100072.02
2019-03-28T01:35:21.670Z,100069.61
2019-03-28T01:37:49.927Z,100071.95
2019-03-28T01:40:18.187Z,100067.53
2019-03-28T01:42:46.471Z,100078.45
2019-03-28T01:45:15.499Z,100078.84
2019-03-28T01:47:43.779Z,100085.99
2019-03-28T01:50:12.042Z,100082.52
2019-03-28T01:52:40.322Z,100080.53
2019-03-28T01:55:08.586Z,100080.70
2019-03-28T01:57:36.881Z,100082.98
2019-03-28T02:00:07.695Z,100082.91
2019-03-28T02:02:38.757Z,100084.62
2019-03-28T02:05:07.888Z,100087.19
2019-03-28T02:07:36.166Z,100085.69
2019-03-28T02:10:05.368Z,100092.18
2019-03-28T02:12:33.653Z,100091.98
2019-03-28T02:15:01.915Z,100087.14
2019-03-28T02:17:30.962Z,100087.03
2019-03-28T02:19:59.225Z,100084.64
2019-03-28T02:22:27.508Z,100083.32
2019-03-28T02:24:56.539Z,100080.55
2019-03-28T02:27:25.873Z,100085.38
2019-03-28T02:29:54.372Z,100091.08
2019-03-28T02:32:22.728Z,100088.91
2019-03-28T02:34:51.061Z,100090.95
2019-03-28T02:37:19.345Z,100091.66
2019-03-28T02:39:47.599Z,100093.98
2019-03-28T02:42:15.879Z,100090.72
2019-03-28T02:44:44.134Z,100089.81
2019-03-28T02:47:12.419Z,100095.80
2019-03-28T02:49:40.945Z,100095.59
2019-03-28T02:52:09.790Z,100096.53
2019-03-28T02:54:38.048Z,100098.35
2019-03-28T02:57:07.695Z,100100.95
2019-03-28T02:59:36.473Z,100098.43
2019-03-28T03:02:04.819Z,100099.26
2019-03-28T03:04:33.091Z,100097.91
2019-03-28T03:07:01.365Z,100098.45
2019-03-28T03:09:29.618Z,100099.70
2019-03-28T03:11:57.905Z,100106.70
2019-03-28T03:14:26.169Z,100109.16
2019-03-28T03:16:54.450Z,100110.50
2019-03-28T03:19:22.714Z,100108.63
2019-03-28T03:21:50.986Z,100108.34
2019-03-28T03:24:19.249Z,100108.31
2019-03-28T03:26:47.539Z,100106.60
2019-03-28T03:29:16.904Z,100105.59
2019-03-28T03:31:45.204Z,100118.62
2019-03-28T03:34:13.463Z,100115.84
2019-03-28T03:36:41.742Z,100120.96
2019-03-28T03:39:10.568Z,100123.48
2019-03-28T03:41:38.866Z,100121.77
2019-03-28T03:44:07.113Z,100122.02
2019-03-28T03:46:36.169Z,100127.98
2019-03-28T03:49:04.843Z,100125.95
2019-03-28T03:51:33.552Z,100126.72
2019-03-28T03:54:01.817Z,100127.66
2019-03-28T03:56:30.076Z,100127.63
2019-03-28T03:58:58.941Z,100124.39
2019-03-28T04:01:27.479Z,100120.92
2019-03-28T04:03:56.544Z,100119.44
2019-03-28T04:06:25.832Z,100114.34
2019-03-28T04:08:54.139Z,100120.96
2019-03-28T04:11:22.370Z,100126.98
2019-03-28T04:13:50.677Z,100127.88
2019-03-28T04:16:18.940Z,100136.13
2019-03-28T04:18:47.995Z,100130.32
2019-03-28T04:21:17.604Z,100126.44
2019-03-28T04:23:45.982Z,100134.64
2019-03-28T04:26:14.819Z,100140.78
2019-03-28T04:28:43.092Z,100146.97
2019-03-28T04:31:12.688Z,100144.61
2019-03-28T04:33:40.973Z,100146.14
2019-03-28T04:36:09.226Z,100148.75
2019-03-28T04:38:38.614Z,100142.80
2019-03-28T04:41:06.869Z,100139.13
2019-03-28T04:43:35.149Z,100140.94
2019-03-28T04:46:03.405Z,100146.02
2019-03-28T04:48:31.691Z,100141.98
2019-03-28T04:51:01.343Z,100142.04
2019-03-28T04:53:29.820Z,100139.34
2019-03-28T04:55:58.022Z,100138.87
2019-03-28T04:58:26.306Z,100142.74
2019-03-28T05:00:54.568Z,100139.38
2019-03-28T05:03:23.486Z,100143.42
2019-03-28T05:05:51.788Z,100138.30
2019-03-28T05:08:20.392Z,100143.42
2019-03-28T05:10:48.645Z,100146.66
2019-03-28T05:13:17.803Z,100145.56
2019-03-28T05:15:46.062Z,100152.95
2019-03-28T05:18:14.629Z,100158.55
2019-03-28T05:20:43.657Z,100153.84
2019-03-28T05:23:11.939Z,100161.86
2019-03-28T05:25:40.195Z,100158.09
2019-03-28T05:28:08.477Z,100155.95
2019-03-28T05:30:36.745Z,100155.46
2019-03-28T05:33:05.023Z,100154.64
2019-03-28T05:35:33.285Z,100166.61
2019-03-28T05:38:02.393Z,100164.03
2019-03-28T05:40:31.788Z,100170.62
2019-03-28T05:43:00.814Z,100166.86
2019-03-28T05:45:29.104Z,100166.52
2019-03-28T05:48:00.209Z,100172.31
2019-03-28T05:50:27.366Z,100169.19
2019-03-28T05:52:55.622Z,100176.39
2019-03-28T05:55:23.906Z,100174.67
2019-03-28T05:57:52.162Z,100178.69
2019-03-28T06:00:20.450Z,100182.27
2019-03-28T06:02:48.707Z,100180.34
2019-03-28T06:05:17.763Z,100178.42
2019-03-28T06:07:46.022Z,100181.58
2019-03-28T06:10:16.328Z,100183.16
2019-03-28T06:12:44.801Z,100180.61
2019-03-28T06:15:13.511Z,100175.39
2019-03-28T06:17:41.766Z,100179.27
2019-03-28T06:20:10.046Z,100186.55
2019-03-28T06:22:38.307Z,100187.53
2019-03-28T06:25:06.607Z,100190.68
2019-03-28T06:27:35.779Z,100184.52
2019-03-28T06:30:06.460Z,100197.72
2019-03-28T06:32:42.846Z,100202.63
2019-03-28T06:35:05.592Z,100198.53
2019-03-28T06:37:33.850Z,100196.25
2019-03-28T06:40:02.431Z,100200.05
2019-03-28T06:42:30.694Z,100203.28
2019-03-28T06:44:59.746Z,100207.98
2019-03-28T06:47:28.008Z,100215.80
2019-03-28T06:49:56.666Z,100217.67
2019-03-28T06:52:25.593Z,100218.85
2019-03-28T06:54:54.344Z,100222.91
2019-03-28T06:57:23.547Z,100212.12
2019-03-28T06:59:51.826Z,100214.88
2019-03-28T07:02:22.089Z,100214.59
2019-03-28T07:04:51.191Z,100217.48
2019-03-28T07:07:19.728Z,100217.08
2019-03-28T07:09:48.011Z,100220.95
2019-03-28T07:12:16.274Z,100220.84
2019-03-28T07:14:44.555Z,100210.59
2019-03-28T07:17:12.811Z,100211.45
2019-03-28T07:19:41.671Z,100212.75
2019-03-28T07:22:10.382Z,100208.98
2019-03-28T07:24:38.769Z,100212.45
2019-03-28T07:27:07.032Z,100207.20
2019-03-28T07:29:35.320Z,100209.18
2019-03-28T07:32:03.580Z,100207.07
2019-03-28T07:34:32.931Z,100210.17
2019-03-28T07:37:01.193Z,100206.48
2019-03-28T07:39:29.451Z,100209.75
2019-03-28T07:41:58.303Z,100211.03
2019-03-28T07:44:26.559Z,100213.24
2019-03-28T07:46:54.839Z,100209.55
2019-03-28T07:49:23.097Z,100207.70
2019-03-28T07:51:52.155Z,100204.00
2019-03-28T07:54:20.398Z,100206.75
2019-03-28T07:56:49.418Z,100204.70
2019-03-28T07:59:17.721Z,100199.09
2019-03-28T08:01:45.999Z,100202.87
2019-03-28T08:04:14.264Z,100212.61
2019-03-28T08:06:49.559Z,100214.85
2019-03-28T08:09:12.535Z,100207.14
2019-03-28T08:11:40.820Z,100213.16
2019-03-28T08:14:09.078Z,100221.66
2019-03-28T08:16:37.364Z,100216.01
2019-03-28T08:19:07.997Z,100216.91
2019-03-28T08:21:35.644Z,100220.30
2019-03-28T08:24:04.062Z,100229.52
2019-03-28T08:26:32.910Z,100231.31
2019-03-28T08:29:01.259Z,100234.98
2019-03-28T08:31:29.528Z,100228.75
2019-03-28T08:33:57.787Z,100230.65
2019-03-28T08:36:26.067Z,100227.92
2019-03-28T08:38:54.327Z,100237.78
2019-03-28T08:41:22.608Z,100233.69
2019-03-28T08:43:50.866Z,100231.33
2019-03-28T08:46:19.151Z,100232.45
2019-03-28T08:48:48.527Z,100235.52
2019-03-28T08:51:16.816Z,100241.74
2019-03-28T08:53:45.072Z,100235.72
2019-03-28T08:56:13.837Z,100247.74
2019-03-28T08:58:42.097Z,100245.94
2019-03-28T09:01:10.381Z,100250.62
2019-03-28T09:03:38.660Z,100252.59
2019-03-28T09:06:07.495Z,100254.14
2019-03-28T09:08:36.429Z,100246.64
2019-03-28T09:11:05.079Z,100257.69
2019-03-28T09:13:33.336Z,100266.84
2019-03-28T09:16:02.186Z,100264.55
2019-03-28T09:18:30.448Z,100263.58
2019-03-28T09:20:58.744Z,100262.70
2019-03-28T09:23:26.993Z,100265.42
2019-03-28T09:25:55.275Z,100261.57
2019-03-28T09:28:23.537Z,100264.34
2019-03-28T09:30:51.821Z,100258.06
2019-03-28T09:33:20.082Z,100261.86
2019-03-28T09:35:48.375Z,100258.09
2019-03-28T09:38:16.639Z,100256.08
2019-03-28T09:40:45.450Z,100257.08
2019-03-28T09:43:13.739Z,100253.21
2019-03-28T09:45:42.001Z,100246.75
2019-03-28T09:48:11.871Z,100248.69
2019-03-28T09:50:40.486Z,100245.69
2019-03-28T09:53:09.439Z,100244.70
2019-03-28T09:55:38.472Z,100252.79
2019-03-28T09:58:06.755Z,100241.87
2019-03-28T10:00:35.016Z,100246.03
2019-03-28T10:03:03.875Z,100254.92
2019-03-28T10:05:32.136Z,100251.45
2019-03-28T10:08:00.414Z,100251.52
2019-03-28T10:10:28.677Z,100254.36
2019-03-28T10:12:56.959Z,100245.59
2019-03-28T10:15:25.226Z,100242.62
2019-03-28T10:17:54.872Z,100247.66
2019-03-28T10:20:23.411Z,100244.79
2019-03-28T10:22:51.692Z,100245.60
2019-03-28T10:25:19.951Z,100242.83
2019-03-28T10:27:48.902Z,100245.38
2019-03-28T10:30:17.159Z,100243.17
2019-03-28T10:32:45.433Z,100239.38
2019-03-28T10:35:16.946Z,100245.65
2019-03-28T10:37:45.223Z,100245.09
2019-03-28T10:40:14.051Z,100249.22
2019-03-28T10:42:42.331Z,100247.31
2019-03-28T10:45:11.160Z,100243.53
2019-03-28T10:47:39.445Z,100238.25
2019-03-28T10:50:07.699Z,100234.70
2019-03-28T10:52:35.979Z,100238.70
2019-03-28T10:55:04.862Z,100243.42
2019-03-28T10:57:33.138Z,100247.98
2019-03-28T11:00:01.416Z,100247.84
2019-03-28T11:02:29.684Z,100249.57
2019-03-28T11:04:57.931Z,100245.05
2019-03-28T11:07:26.209Z,100248.33
2019-03-28T11:09:54.462Z,100250.59
2019-03-28T11:12:22.845Z,100252.45
2019-03-28T11:14:51.074Z,100246.64
2019-03-28T11:17:19.429Z,100243.23
2019-03-28T11:19:47.683Z,100250.94
2019-03-28T11:22:15.962Z,100246.89
2019-03-28T11:24:46.319Z,100255.17
2019-03-28T11:27:14.232Z,100253.00
2019-03-28T11:29:42.481Z,100250.03
2019-03-28T11:32:10.741Z,100255.38
2019-03-28T11:34:40.337Z,100257.09
2019-03-28T11:39:39.437Z,100250.88
2019-03-28T11:42:07.693Z,100257.84
2019-03-28T11:42:35.505Z,100252.16
2019-03-28T11:44:35.980Z,100257.34
2019-03-28T11:47:04.229Z,100258.14
2019-03-28T11:49:32.505Z,100251.34
2019-03-28T11:52:00.764Z,100253.88
2019-03-28T11:54:29.038Z,100260.76
2019-03-28T11:56:57.294Z,100263.30
2019-03-28T11:59:26.347Z,100260.92
2019-03-28T12:02:00.492Z,100259.09
2019-03-28T12:04:24.611Z,100253.80
2019-03-28T12:06:52.891Z,100255.02
2019-03-28T12:09:21.171Z,100256.95
2019-03-28T12:11:52.669Z,100258.19
2019-03-28T12:14:19.426Z,100264.95
2019-03-28T12:16:47.686Z,100271.34
2019-03-28T12:19:17.724Z,100259.30
2019-03-28T12:21:45.946Z,100256.80
2019-03-28T12:24:14.801Z,100255.09
2019-03-28T12:26:43.064Z,100252.94
2019-03-28T12:36:57.733Z,100266.09
2019-03-28T12:39:26.013Z,100262.52
2019-03-28T12:41:54.272Z,100258.30
2019-03-28T12:44:22.561Z,100258.03
2019-03-28T12:46:50.805Z,100259.34
2019-03-28T12:49:19.087Z,100263.70
2019-03-28T12:51:47.342Z,100260.25
2019-03-28T12:54:15.622Z,100261.28
2019-03-28T12:56:43.875Z,100258.17
2019-03-28T12:59:12.474Z,100263.61
2019-03-28T13:01:41.059Z,100251.58
2019-03-28T13:04:09.338Z,100255.79
2019-03-28T13:06:38.364Z,100250.11
2019-03-28T13:09:09.830Z,100254.27
2019-03-28T13:11:38.108Z,100250.20
2019-03-28T13:14:06.385Z,100252.09
2019-03-28T13:16:34.646Z,100250.20
2019-03-28T13:19:02.922Z,100258.38
2019-03-28T13:21:31.177Z,100254.80
2019-03-28T13:23:59.458Z,100249.22
2019-03-28T13:26:27.710Z,100250.87
2019-03-28T13:28:56.030Z,100257.30
2019-03-28T13:31:24.320Z,100259.39
2019-03-28T13:33:52.600Z,100254.88
2019-03-28T13:36:21.427Z,100259.03
2019-03-28T13:38:49.697Z,100257.67
2019-03-28T13:41:17.948Z,100255.66
2019-03-28T13:43:46.225Z,100261.44
2019-03-28T13:46:14.477Z,100256.88
2019-03-28T13:48:42.734Z,100261.16
2019-03-28T13:51:11.011Z,100253.23
2019-03-28T13:53:40.085Z,100251.45
2019-03-28T13:56:08.519Z,100254.01
2019-03-28T13:58:36.784Z,100261.23
2019-03-28T14:01:05.058Z,100260.05
2019-03-28T14:03:33.310Z,100256.17
2019-03-28T14:06:01.587Z,100257.92
2019-03-28T14:08:29.843Z,100259.34
2019-03-28T14:10:58.686Z,100256.70
2019-03-28T14:13:26.946Z,100257.30
2019-03-28T14:15:55.222Z,100249.77
2019-03-28T14:18:23.472Z,100246.33
2019-03-28T14:20:52.321Z,100253.59
2019-03-28T14:23:20.662Z,100243.20
2019-03-28T14:25:48.938Z,100240.22
2019-03-28T14:28:17.198Z,100235.69
2019-03-28T14:30:45.477Z,100235.22
2019-03-28T14:33:15.918Z,100233.08
2019-03-28T14:35:43.753Z,100236.18
2019-03-28T14:38:12.015Z,100235.02
2019-03-28T14:40:40.290Z,100235.81
2019-03-28T14:43:10.725Z,100235.23
2019-03-28T14:45:38.718Z,100244.83
2019-03-28T14:48:07.151Z,100234.31
2019-03-28T14:50:39.646Z,100231.72
2019-03-28T14:53:07.830Z,100229.47
2019-03-28T14:55:36.114Z,100229.88
2019-03-28T14:58:04.711Z,100229.34
2019-03-28T15:00:47.970Z,100221.31
2019-03-28T15:03:25.660Z,100220.97
2019-03-28T15:05:46.289Z,100220.95
2019-03-28T15:08:14.546Z,100230.35
2019-03-28T15:10:42.831Z,100223.55
2019-03-28T15:13:11.858Z,100227.63
2019-03-28T15:15:40.134Z,100228.92
2019-03-28T15:18:09.169Z,100223.33
2019-03-28T15:20:37.444Z,100223.45
2019-03-28T15:23:05.703Z,100221.48
2019-03-28T15:25:33.978Z,100223.94
2019-03-28T15:28:02.239Z,100222.12
2019-03-28T15:30:30.514Z,100221.47
2019-03-28T15:32:58.770Z,100227.66
2019-03-28T15:35:27.042Z,100223.63
2019-03-28T15:37:55.296Z,100228.94
2019-03-28T15:40:23.577Z,100221.91
2019-03-28T15:42:51.828Z,100224.30
2019-03-28T15:45:20.110Z,100229.70
2019-03-28T15:47:48.360Z,100234.66
2019-03-28T15:50:16.634Z,100232.70
2019-03-28T15:52:44.885Z,100226.56
2019-03-28T15:55:14.660Z,100229.36
2019-03-28T15:57:43.302Z,100236.44
2019-03-28T16:00:11.571Z,100235.94
2019-03-28T16:02:39.893Z,100232.75
2019-03-28T16:05:08.174Z,100229.10
2019-03-28T16:07:37.203Z,100226.64
2019-03-28T16:10:08.266Z,100226.28
2019-03-28T16:12:36.521Z,100220.19
2019-03-28T16:15:07.342Z,100226.52
2019-03-28T16:17:35.596Z,100221.58
2019-03-28T16:20:05.106Z,100220.05
2019-03-28T16:22:33.358Z,100227.72
2019-03-28T16:25:01.654Z,100226.30
2019-03-28T16:27:29.902Z,100234.72
2019-03-28T16:29:58.156Z,100232.35
2019-03-28T16:32:26.473Z,100231.14
2019-03-28T16:34:54.684Z,100228.02
2019-03-28T16:37:22.970Z,100228.17
2019-03-28T16:39:51.221Z,100223.37
2019-03-28T16:42:19.498Z,100226.95
2019-03-28T16:44:48.324Z,100218.55
2019-03-28T16:47:16.598Z,100220.98
2019-03-28T16:49:44.850Z,100227.05
2019-03-28T16:52:15.829Z,100225.06
2019-03-28T16:54:44.081Z,100226.57
2019-03-28T16:57:12.930Z,100225.34
2019-03-28T16:59:41.188Z,100227.03
2019-03-28T17:02:09.467Z,100226.25
2019-03-28T17:04:37.743Z,100231.20
2019-03-28T17:07:06.878Z,100233.30
2019-03-28T17:09:37.568Z,100238.31
2019-03-28T17:12:05.163Z,100235.78
2019-03-28T17:14:33.399Z,100227.98
2019-03-28T17:17:02.243Z,100228.89
2019-03-28T17:19:30.499Z,100231.94
2019-03-28T17:21:58.779Z,100228.70
2019-03-28T17:24:28.031Z,100233.23
2019-03-28T17:26:56.402Z,100231.55
2019-03-28T17:29:25.000Z,100229.22
2019-03-28T17:31:53.274Z,100230.97
2019-03-28T17:34:34.205Z,100227.51
2019-03-28T17:36:52.369Z,100231.55
2019-03-28T17:39:20.631Z,100237.04
2019-03-28T17:41:50.250Z,100236.97
2019-03-28T17:44:18.507Z,100231.73
2019-03-28T17:46:46.786Z,100238.75
2019-03-28T17:49:15.062Z,100244.08
2019-03-28T17:51:43.325Z,100242.52
2019-03-28T17:54:11.961Z,100249.88
2019-03-28T17:56:40.429Z,100241.66
2019-03-28T17:59:08.681Z,100245.72
2019-03-28T18:01:36.960Z,100247.47
2019-03-28T18:04:05.861Z,100238.44
2019-03-28T18:06:35.418Z,100240.66
2019-03-28T18:09:05.296Z,100240.30
2019-03-28T18:11:33.569Z,100248.52
2019-03-28T18:14:02.597Z,100245.41
2019-03-28T18:16:30.870Z,100237.83
2019-03-28T18:18:59.121Z,100246.08
2019-03-28T18:21:27.448Z,100244.83
2019-03-28T18:23:55.696Z,100242.84
2019-03-28T18:26:23.949Z,100240.63
2019-03-28T18:28:52.228Z,100245.38
2019-03-28T18:31:21.250Z,100245.05
2019-03-28T18:33:49.526Z,100240.58
2019-03-28T18:36:18.548Z,100239.63
2019-03-28T18:38:46.825Z,100242.17
2019-03-28T18:41:15.079Z,100240.30
2019-03-28T18:43:43.349Z,100243.01
2019-03-28T18:46:14.752Z,100247.71
2019-03-28T18:48:42.170Z,100250.00
2019-03-28T18:51:11.093Z,100247.24
2019-03-28T18:53:39.373Z,100250.78
2019-03-28T18:56:07.621Z,100251.03
2019-03-28T18:58:35.902Z,100254.04
2019-03-28T19:01:04.152Z,100253.97
2019-03-28T19:03:33.267Z,100251.92
2019-03-28T19:06:03.151Z,100248.58
2019-03-28T19:08:31.424Z,100250.09
2019-03-28T19:10:59.677Z,100245.67
2019-03-28T19:13:27.949Z,100246.54
2019-03-28T19:15:56.200Z,100239.59
2019-03-28T19:18:25.712Z,100238.90
2019-03-28T19:20:54.693Z,100237.45
2019-03-28T19:23:24.827Z,100240.22
2019-03-28T19:25:53.167Z,100238.94
2019-03-28T19:28:28.812Z,100241.58
2019-03-28T19:30:51.432Z,100240.88
2019-03-28T19:33:19.709Z,100243.23
2019-03-28T19:35:47.962Z,100244.28
2019-03-28T19:38:17.038Z,100243.06
2019-03-28T19:40:45.213Z,100251.41
2019-03-28T19:43:20.331Z,100254.80
2019-03-28T19:45:43.471Z,100256.69
2019-03-28T19:48:11.748Z,100250.05
2019-03-28T19:50:40.004Z,100251.23
2019-03-28T19:53:11.565Z,100245.87
2019-03-28T19:55:39.885Z,100248.45
2019-03-28T19:58:08.260Z,100243.00
2019-03-28T20:00:36.514Z,100249.17
2019-03-28T20:03:04.772Z,100242.50
2019-03-28T20:05:46.434Z,100256.12
2019-03-28T20:08:14.681Z,100248.55
2019-03-28T20:10:33.598Z,100245.39
2019-03-28T20:13:05.088Z,100243.67
2019-03-28T20:15:32.431Z,100248.95
2019-03-28T20:18:00.677Z,100247.80
2019-03-28T20:20:28.953Z,100254.16
2019-03-28T20:22:57.207Z,100260.25
2019-03-28T20:25:26.253Z,100249.05
2019-03-28T20:27:54.579Z,100255.44
2019-03-28T20:30:24.758Z,100255.95
2019-03-28T20:32:53.010Z,100256.72
2019-03-28T20:35:22.022Z,100257.89
2019-03-28T20:37:50.415Z,100251.77
2019-03-28T20:40:19.262Z,100250.47
2019-03-28T20:42:47.512Z,100252.55
2019-03-28T20:45:15.958Z,100248.00
2019-03-28T20:47:44.886Z,100255.73
2019-03-28T20:50:13.252Z,100255.47
2019-03-28T20:52:42.074Z,100255.69
2019-03-28T20:55:10.360Z,100257.29
2019-03-28T20:57:40.421Z,100252.22
2019-03-28T21:00:09.021Z,100250.70
2019-03-28T21:02:37.400Z,100249.38
2019-03-28T21:05:08.597Z,100251.41
2019-03-28T21:07:36.855Z,100252.39
2019-03-28T21:10:06.069Z,100251.94
2019-03-28T21:12:34.322Z,100246.73
2019-03-28T21:15:02.603Z,100245.89
2019-03-28T21:17:32.222Z,100242.98
2019-03-28T21:20:00.861Z,100241.17
2019-03-28T21:22:29.120Z,100242.14
2019-03-28T21:24:57.385Z,100245.95
2019-03-28T21:27:25.644Z,100242.05
2019-03-28T21:29:53.917Z,100241.81
2019-03-28T21:32:23.610Z,100241.69
2019-03-28T21:34:51.889Z,100246.84
2019-03-28T21:37:20.140Z,100246.84
2019-03-28T21:39:48.422Z,100251.25
2019-03-28T21:42:17.240Z,100244.16
2019-03-28T21:44:45.520Z,100260.09
2019-03-28T21:47:13.773Z,100256.59
2019-03-28T21:49:42.049Z,100261.82
2019-03-28T21:52:11.084Z,100262.97
2019-03-28T21:54:39.354Z,100262.66
2019-03-28T21:57:07.605Z,100263.39
2019-03-28T21:59:35.889Z,100261.50
2019-03-28T22:02:04.146Z,100255.16
2019-03-28T22:04:32.453Z,100257.45
2019-03-28T22:07:00.715Z,100248.99
2019-03-28T22:09:28.966Z,100249.73
2019-03-28T22:12:00.469Z,100255.19
2019-03-28T22:14:27.241Z,100256.66
2019-03-28T22:16:55.510Z,100253.77
2019-03-28T22:19:24.012Z,100253.02
2019-03-28T22:21:52.294Z,100264.16
2019-03-28T22:24:20.556Z,100257.58
2019-03-28T22:26:48.840Z,100262.24
2019-03-28T22:29:17.364Z,100258.28
2019-03-28T22:31:45.640Z,100259.38
2019-03-28T22:34:13.892Z,100264.33
2019-03-28T22:36:56.258Z,100264.33
2019-03-28T22:39:12.784Z,100261.42
2019-03-28T22:41:41.101Z,100255.53
2019-03-28T22:44:09.353Z,100261.80
2019-03-28T22:46:39.794Z,100257.94
2019-03-28T22:49:08.375Z,100255.94
2019-03-28T22:51:36.649Z,100257.69
2019-03-28T22:54:04.974Z,100257.02
2019-03-28T22:56:33.265Z,100258.38
2019-03-28T22:59:01.508Z,100263.27
2019-03-28T23:01:29.786Z,100255.03
2019-03-28T23:03:58.372Z,100254.72
2019-03-28T23:06:26.718Z,100259.39
2019-03-28T23:08:54.979Z,100263.46
2019-03-28T23:11:23.260Z,100255.13
2019-03-28T23:13:52.837Z,100258.33
2019-03-28T23:16:21.501Z,100255.21
2019-03-28T23:18:49.769Z,100265.88
2019-03-28T23:21:18.049Z,100254.45
2019-03-28T23:23:46.305Z,100259.48
2019-03-28T23:26:14.587Z,100259.72
2019-03-28T23:28:42.844Z,100260.42
2019-03-28T23:31:11.121Z,100260.88
2019-03-28T23:33:39.380Z,100262.80
2019-03-28T23:36:07.662Z,100256.47
2019-03-28T23:38:35.919Z,100262.93
2019-03-28T23:41:04.206Z,100266.56
2019-03-28T23:43:32.463Z,100259.53
2019-03-28T23:46:00.748Z,100253.02
2019-03-28T23:48:29.011Z,100256.42
2019-03-28T23:50:57.294Z,100249.22
2019-03-28T23:53:25.555Z,100246.00
2019-03-28T23:55:53.832Z,100248.19
2019-03-28T23:58:22.090Z,100244.88
